Time;durP1;ratioP1;P1;durP2;ratioP2;P2;SDS_P1;SDS_P2;PMS_P1;PMS_P2;Temp;Humidity;BMP_temperature;BMP_pressure;BME280_temperature;BME280_humidity;BME280_pressure;Samples;Min_cycle;Max_cycle;Signal;HPM_P1;HPM_P2
2022/01/20 00:03:47;;;;;;;9.25;7.25;;;2.00;99.90;;;;;;4898809;29;20064;-82
2022/01/20 00:28:03;;;;;;;8.73;5.82;;;1.90;99.90;;;;;;4877104;29;20065;-82
2022/01/20 00:37:45;;;;;;;7.97;5.72;;;1.90;99.90;;;;;;4894856;29;20108;-81
2022/01/20 00:40:36;;;;;;;8.35;5.95;;;1.90;99.90;;;;;;4870290;29;20053;-81
2022/01/20 00:43:24;;;;;;;8.73;6.03;;;1.90;99.90;;;;;;4873943;29;20192;-81
2022/01/20 00:46:14;;;;;;;8.45;5.85;;;1.90;99.90;;;;;;4884193;29;20336;-81
2022/01/20 00:49:09;;;;;;;7.88;5.55;;;1.90;99.90;;;;;;4867741;29;20068;-81
2022/01/20 00:52:00;;;;;;;8.07;5.70;;;1.90;99.90;;;;;;4893608;29;20466;-82
2022/01/20 00:54:48;;;;;;;6.53;5.10;;;1.90;99.90;;;;;;4870732;29;20185;-81
2022/01/20 00:57:35;;;;;;;9.10;6.03;;;1.90;99.90;;;;;;4883186;29;20048;-83
2022/01/20 01:00:22;;;;;;;9.32;5.63;;;1.90;99.90;;;;;;4870968;29;20057;-81
2022/01/20 01:03:12;;;;;;;6.10;5.07;;;1.90;99.90;;;;;;4882645;29;20131;-81
2022/01/20 01:08:58;;;;;;;8.60;5.32;;;1.90;99.90;;;;;;4894261;29;20044;-82
2022/01/20 01:11:49;;;;;;;7.78;5.43;;;1.90;99.90;;;;;;4884490;29;20048;-81
2022/01/20 01:14:42;;;;;;;8.75;6.28;;;1.90;99.90;;;;;;4872050;29;20482;-80
2022/01/20 01:20:20;;;;;;;8.50;5.57;;;1.80;99.90;;;;;;4883378;29;20045;-82
2022/01/20 01:23:07;;;;;;;11.07;6.03;;;1.60;99.90;;;;;;4872101;29;20583;-82
2022/01/20 01:25:56;;;;;;;10.32;6.63;;;1.50;99.90;;;;;;4898185;29;20060;-82
2022/01/20 01:28:44;;;;;;;8.60;5.57;;;1.50;99.90;;;;;;4865621;29;20466;-82
2022/01/20 01:31:37;;;;;;;9.65;6.25;;;1.50;99.90;;;;;;4885760;29;20135;-81
2022/01/20 01:34:28;;;;;;;9.60;6.10;;;1.50;99.90;;;;;;4876492;29;20040;-80
2022/01/20 01:38:23;;;;;;;10.95;6.20;;;1.50;99.90;;;;;;4873271;29;20181;-81
2022/01/20 01:40:42;;;;;;;9.27;6.30;;;1.40;99.90;;;;;;4899005;29;20056;-82
2022/01/20 01:43:31;;;;;;;7.88;5.85;;;1.40;99.90;;;;;;4867337;29;20045;-82
2022/01/20 01:46:18;;;;;;;7.30;5.43;;;1.40;99.90;;;;;;4888711;29;20456;-82
2022/01/20 01:49:06;;;;;;;8.88;5.93;;;1.50;99.90;;;;;;4871609;29;20057;-81
2022/01/20 01:51:55;;;;;;;8.18;5.97;;;1.40;99.90;;;;;;4872268;29;20045;-82
2022/01/20 01:54:43;;;;;;;9.98;6.40;;;1.40;99.90;;;;;;4881876;29;20073;-82
2022/01/20 01:57:35;;;;;;;8.70;6.15;;;1.40;99.90;;;;;;4869472;29;20080;-83
2022/01/20 02:00:30;;;;;;;8.52;6.03;;;1.40;99.90;;;;;;4884949;29;20056;-82
2022/01/20 02:03:18;;;;;;;10.25;5.95;;;1.40;99.90;;;;;;4873078;29;20052;-83
2022/01/20 02:21:21;;;;;;;8.02;5.90;;;1.40;99.90;;;;;;4900160;29;20593;-81
2022/01/20 02:24:08;;;;;;;6.03;4.53;;;1.40;99.90;;;;;;4886256;29;20181;-83
2022/01/20 02:26:57;;;;;;;6.13;4.78;;;1.50;99.90;;;;;;4881852;29;20071;-82
2022/01/20 02:29:45;;;;;;;5.40;4.13;;;1.50;99.90;;;;;;4892642;29;20124;-82
2022/01/20 02:32:33;;;;;;;5.45;4.53;;;1.50;99.90;;;;;;4885252;29;20124;-81
2022/01/20 02:35:22;;;;;;;5.88;3.97;;;1.50;99.90;;;;;;4885373;29;20044;-81
2022/01/20 02:47:24;;;;;;;6.05;3.83;;;1.60;99.90;;;;;;4885461;29;20052;-82
2022/01/20 02:50:15;;;;;;;4.05;3.40;;;1.60;99.90;;;;;;4883951;29;20052;-82
2022/01/20 02:53:03;;;;;;;4.65;3.50;;;1.60;99.90;;;;;;4872828;29;20089;-81
2022/01/20 02:55:51;;;;;;;4.85;3.58;;;1.60;99.90;;;;;;4891553;29;20044;-81
2022/01/20 02:58:39;;;;;;;3.83;3.05;;;1.60;99.90;;;;;;4885936;29;20048;-82
2022/01/20 03:01:26;;;;;;;3.90;2.90;;;1.60;99.90;;;;;;4898985;29;20097;-81
2022/01/20 03:04:17;;;;;;;3.65;2.75;;;1.60;99.90;;;;;;4883246;29;20085;-81
2022/01/20 03:07:06;;;;;;;3.20;2.88;;;1.60;99.90;;;;;;4868774;29;20064;-82
2022/01/20 03:09:55;;;;;;;3.72;2.53;;;1.60;99.90;;;;;;4891724;29;20157;-82
2022/01/20 03:12:43;;;;;;;3.47;2.25;;;1.60;99.90;;;;;;4868364;29;20051;-81
2022/01/20 03:15:33;;;;;;;2.10;1.90;;;1.70;99.90;;;;;;4866314;29;20117;-81
2022/01/20 03:18:22;;;;;;;2.10;2.00;;;1.70;99.90;;;;;;4901778;29;20217;-82
2022/01/20 03:21:09;;;;;;;1.98;1.83;;;1.70;99.90;;;;;;4857985;29;20140;-82
2022/01/20 03:23:57;;;;;;;2.03;1.83;;;1.70;99.90;;;;;;4895267;29;20127;-82
2022/01/20 03:26:45;;;;;;;1.73;1.45;;;1.70;99.90;;;;;;4884845;29;20108;-82
2022/01/20 03:29:33;;;;;;;1.90;1.80;;;1.70;99.90;;;;;;4900456;29;20051;-81
2022/01/20 03:32:23;;;;;;;1.60;1.50;;;1.70;99.90;;;;;;4899495;29;20127;-81
2022/01/20 03:35:13;;;;;;;3.33;1.70;;;1.70;99.90;;;;;;4885091;29;20113;-81
2022/01/20 03:38:01;;;;;;;1.70;1.60;;;1.70;99.90;;;;;;4866548;29;20055;-83
2022/01/20 03:40:49;;;;;;;1.40;1.30;;;1.70;99.90;;;;;;4879413;29;20076;-82
2022/01/20 03:43:41;;;;;;;3.70;1.48;;;1.70;99.90;;;;;;4877771;29;20045;-81
2022/01/20 03:46:29;;;;;;;1.52;1.42;;;1.70;99.90;;;;;;4904644;29;20268;-79
2022/01/20 03:49:36;;;;;;;1.60;1.50;;;1.70;99.90;;;;;;4889064;29;20484;-82
2022/01/20 03:52:23;;;;;;;1.60;1.50;;;1.70;99.90;;;;;;4881390;29;20049;-80
2022/01/20 03:55:10;;;;;;;1.63;1.52;;;1.70;99.90;;;;;;4886311;29;20108;-80
2022/01/20 03:58:00;;;;;;;1.48;1.33;;;1.70;99.90;;;;;;4880467;29;20053;-81
2022/01/20 04:00:54;;;;;;;1.60;1.50;;;1.70;99.90;;;;;;4878239;29;20057;-80
2022/01/20 04:03:43;;;;;;;1.60;1.50;;;1.70;99.90;;;;;;4883561;29;20048;-82
2022/01/20 04:06:33;;;;;;;1.60;1.50;;;1.70;99.90;;;;;;4898120;29;20084;-81
2022/01/20 04:09:20;;;;;;;2.35;1.67;;;1.70;99.90;;;;;;4871977;29;20658;-82
2022/01/20 04:12:08;;;;;;;1.60;1.50;;;1.70;99.90;;;;;;4884043;29;20151;-83
2022/01/20 04:14:55;;;;;;;2.92;1.48;;;1.70;99.90;;;;;;4883961;29;20128;-83
2022/01/20 04:17:51;;;;;;;1.50;1.40;;;1.80;99.90;;;;;;4891800;29;20074;-82
2022/01/20 04:20:39;;;;;;;1.85;1.67;;;1.70;99.90;;;;;;4882509;29;20049;-83
2022/01/20 04:23:30;;;;;;;1.63;1.52;;;1.70;99.90;;;;;;4862197;29;20129;-81
2022/01/20 04:26:18;;;;;;;1.52;1.42;;;1.70;99.90;;;;;;4886111;29;20045;-82
2022/01/20 04:29:11;;;;;;;2.63;1.27;;;1.70;99.90;;;;;;4896778;29;20040;-82
2022/01/20 04:31:58;;;;;;;2.17;1.50;;;1.70;99.90;;;;;;4890001;29;20143;-82
2022/01/20 04:34:46;;;;;;;1.63;1.48;;;1.70;99.90;;;;;;4896829;29;20053;-82
2022/01/20 04:37:35;;;;;;;1.70;1.60;;;1.70;99.90;;;;;;4884565;29;20108;-82
2022/01/20 04:40:22;;;;;;;1.73;1.63;;;1.70;99.90;;;;;;4885758;29;20180;-83
2022/01/20 04:43:10;;;;;;;1.60;1.50;;;1.70;99.90;;;;;;4882556;29;20474;-82
2022/01/20 04:57:05;;;;;;;1.52;1.42;;;1.70;99.90;;;;;;4885147;29;20053;-81
2022/01/20 04:58:34;;;;;;;2.03;1.80;;;1.70;99.90;;;;;;4879794;29;20081;-81
2022/01/20 05:01:22;;;;;;;2.00;1.90;;;1.60;99.90;;;;;;4862191;29;20053;-80
2022/01/20 05:04:09;;;;;;;2.33;2.00;;;1.70;99.90;;;;;;4852356;29;20048;-81
2022/01/20 05:06:59;;;;;;;1.95;1.80;;;1.60;99.90;;;;;;4883006;29;20473;-81
2022/01/20 05:09:47;;;;;;;2.13;1.98;;;1.60;99.90;;;;;;4899727;29;20056;-82
2022/01/20 05:15:40;;;;;;;2.80;2.20;;;1.50;99.90;;;;;;4891026;29;20059;-80
2022/01/20 05:18:27;;;;;;;2.22;2.03;;;1.60;99.90;;;;;;4878026;29;20045;-82
2022/01/20 05:21:15;;;;;;;4.15;2.78;;;1.60;99.90;;;;;;4897764;29;20474;-81
2022/01/20 05:24:03;;;;;;;2.47;2.28;;;1.60;99.90;;;;;;4886810;29;20408;-82
2022/01/20 05:26:52;;;;;;;2.22;2.03;;;1.60;99.90;;;;;;4879451;29;20203;-82
2022/01/20 05:29:41;;;;;;;2.28;2.08;;;1.60;99.90;;;;;;4905436;29;20063;-81
2022/01/20 05:58:48;;;;;;;2.78;2.50;;;1.50;99.90;;;;;;4895739;29;20033;-82
2022/01/20 06:02:13;;;;;;;3.15;2.55;;;1.60;99.90;;;;;;4901191;29;20055;-82
2022/01/20 06:18:00;;;;;;;2.90;2.20;;;1.50;99.90;;;;;;4864780;29;20033;-85
2022/01/20 06:20:49;;;;;;;3.67;2.55;;;1.50;99.90;;;;;;4845901;29;20060;-82
2022/01/20 06:23:37;;;;;;;4.28;2.95;;;1.40;99.90;;;;;;4847409;29;20538;-83
2022/01/20 06:26:27;;;;;;;5.40;2.58;;;1.50;99.90;;;;;;4856386;29;20057;-82
2022/01/20 06:29:17;;;;;;;3.92;2.92;;;1.50;99.90;;;;;;4840091;29;20049;-84
2022/01/20 06:32:04;;;;;;;5.38;3.38;;;1.50;99.90;;;;;;4860023;29;20057;-85
2022/01/20 06:34:51;;;;;;;6.15;3.20;;;1.50;99.90;;;;;;4839521;29;20050;-83
2022/01/20 06:37:41;;;;;;;4.18;3.40;;;1.50;99.90;;;;;;4881862;29;20192;-82
2022/01/20 06:40:30;;;;;;;6.18;3.45;;;1.40;99.90;;;;;;4895338;29;20060;-82
2022/01/20 07:25:06;;;;;;;11.43;7.35;;;1.40;99.90;;;;;;5758105;23;20061;-79
2022/01/20 07:27:53;;;;;;;10.38;6.25;;;1.40;99.90;;;;;;4875059;29;20073;-80
2022/01/20 07:30:55;;;;;;;10.73;6.95;;;1.30;99.90;;;;;;4886378;29;20464;-82
2022/01/20 07:33:44;;;;;;;10.60;6.55;;;1.30;99.90;;;;;;4882905;29;20049;-82
2022/01/20 07:36:32;;;;;;;18.00;8.40;;;1.20;99.90;;;;;;4882989;29;20192;-80
2022/01/20 07:39:19;;;;;;;11.50;7.72;;;1.20;99.90;;;;;;4887609;29;20049;-80
2022/01/20 07:42:06;;;;;;;14.07;7.38;;;1.10;99.90;;;;;;4884735;29;20056;-81
2022/01/20 07:44:54;;;;;;;12.35;7.07;;;1.10;99.90;;;;;;4890164;29;20045;-80
2022/01/20 07:47:41;;;;;;;13.35;7.65;;;1.10;99.90;;;;;;4888409;29;20149;-79
2022/01/20 07:50:37;;;;;;;17.55;8.00;;;1.00;99.90;;;;;;4885622;29;20052;-81
2022/01/20 07:53:24;;;;;;;12.82;7.47;;;1.00;99.90;;;;;;4881428;29;20044;-80
2022/01/20 07:56:11;;;;;;;11.23;6.68;;;1.00;99.90;;;;;;4868598;29;20116;-80
2022/01/20 07:59:00;;;;;;;13.77;6.75;;;1.00;99.90;;;;;;4902070;29;20415;-82
2022/01/20 08:01:50;;;;;;;16.27;6.68;;;1.00;99.90;;;;;;4899222;29;20045;-80
2022/01/20 08:04:37;;;;;;;11.82;6.55;;;1.00;99.90;;;;;;4898507;29;20044;-79
2022/01/20 08:07:26;;;;;;;16.15;6.82;;;1.20;99.90;;;;;;4873909;29;20058;-79
2022/01/20 08:10:16;;;;;;;18.88;6.88;;;1.30;99.90;;;;;;4900006;29;20076;-79
2022/01/20 08:13:04;;;;;;;20.42;8.23;;;1.40;99.90;;;;;;4897920;28;20037;-78
2022/01/20 08:15:52;;;;;;;15.13;6.57;;;1.50;99.90;;;;;;4886138;29;20048;-80
2022/01/20 08:18:39;;;;;;;24.83;6.35;;;1.50;99.90;;;;;;4886376;29;20056;-82
2022/01/20 08:21:29;;;;;;;14.32;5.97;;;1.40;99.90;;;;;;4880735;29;20056;-79
2022/01/20 08:24:19;;;;;;;16.98;5.65;;;1.40;99.90;;;;;;4891495;29;20063;-81
2022/01/20 08:27:07;;;;;;;15.40;5.70;;;1.60;99.90;;;;;;4883817;29;20072;-80
2022/01/20 08:29:54;;;;;;;10.68;5.47;;;1.80;99.90;;;;;;4885859;29;20040;-81
2022/01/20 08:32:43;;;;;;;12.27;5.47;;;2.00;99.90;;;;;;4880086;29;20041;-81
2022/01/20 08:35:32;;;;;;;10.35;4.90;;;2.20;99.90;;;;;;4873521;29;20071;-80
2022/01/20 08:38:20;;;;;;;12.50;5.15;;;2.20;99.90;;;;;;4890577;29;20055;-81
2022/01/20 08:41:07;;;;;;;16.98;5.47;;;2.20;99.90;;;;;;4901912;29;20056;-81
2022/01/20 08:43:56;;;;;;;13.02;4.97;;;2.20;99.90;;;;;;4865926;29;20049;-81
2022/01/20 08:46:45;;;;;;;16.52;5.40;;;2.20;99.90;;;;;;4898928;29;20063;-81
2022/01/20 08:49:36;;;;;;;21.20;5.32;;;2.20;99.90;;;;;;4884350;29;20056;-80
2022/01/20 08:52:24;;;;;;;12.27;4.78;;;2.20;99.90;;;;;;4877342;29;20051;-81
2022/01/20 08:55:11;;;;;;;14.82;5.18;;;2.20;99.90;;;;;;4868305;29;20057;-81
2022/01/20 08:57:59;;;;;;;14.38;4.88;;;2.30;99.90;;;;;;4887418;29;20443;-80
2022/01/20 09:00:49;;;;;;;14.40;4.63;;;2.30;99.90;;;;;;4880337;29;20048;-80
2022/01/20 09:03:37;;;;;;;16.33;5.25;;;2.30;99.90;;;;;;4874010;29;20059;-79
2022/01/20 09:06:29;;;;;;;14.00;5.05;;;2.40;99.90;;;;;;4871308;29;20045;-79
2022/01/20 09:09:19;;;;;;;13.18;5.15;;;2.40;99.90;;;;;;4899160;29;20058;-80
2022/01/20 09:18:11;;;;;;;11.02;4.78;;;2.40;99.90;;;;;;4899911;29;20125;-80
2022/01/20 09:21:01;;;;;;;18.98;4.80;;;2.50;99.90;;;;;;4884338;29;20140;-80
2022/01/20 09:23:50;;;;;;;12.55;4.95;;;2.50;99.90;;;;;;4887656;29;20059;-79
2022/01/20 09:26:37;;;;;;;19.17;5.60;;;2.60;99.90;;;;;;4876081;29;20060;-81
2022/01/20 09:29:25;;;;;;;14.45;5.22;;;2.70;99.90;;;;;;4884428;29;20048;-81
2022/01/20 09:32:13;;;;;;;16.75;4.85;;;2.80;99.90;;;;;;4872016;29;20072;-79
2022/01/20 09:35:02;;;;;;;16.40;4.32;;;2.90;99.90;;;;;;4903346;29;20067;-81
2022/01/20 09:37:49;;;;;;;18.35;5.82;;;3.10;99.90;;;;;;4884641;29;20378;-77
2022/01/20 09:40:38;;;;;;;9.60;3.95;;;3.20;99.90;;;;;;4870309;29;20045;-81
2022/01/20 09:43:26;;;;;;;15.20;4.78;;;3.40;99.90;;;;;;4880904;29;20101;-81
2022/01/20 09:46:17;;;;;;;15.48;4.70;;;3.30;99.90;;;;;;4895666;29;20052;-82
2022/01/20 09:49:05;;;;;;;14.93;5.22;;;3.30;99.90;;;;;;4882969;29;20049;-81
2022/01/20 09:51:53;;;;;;;14.00;5.22;;;3.30;99.90;;;;;;4891758;29;20071;-80
2022/01/20 09:54:40;;;;;;;15.13;4.45;;;3.30;99.90;;;;;;4882856;29;20051;-80
2022/01/20 09:57:27;;;;;;;15.35;4.43;;;3.20;99.90;;;;;;4869012;29;20045;-80
2022/01/20 10:00:18;;;;;;;13.38;4.32;;;3.20;99.90;;;;;;4894428;29;20056;-79
2022/01/20 10:03:12;;;;;;;15.73;4.63;;;3.30;99.90;;;;;;4884581;29;20715;-80
2022/01/20 10:06:02;;;;;;;18.58;4.38;;;3.50;99.90;;;;;;4896769;29;20055;-79
2022/01/20 10:09:00;;;;;;;15.48;4.45;;;3.70;99.90;;;;;;4884090;29;20160;-79
2022/01/20 10:12:09;;;;;;;14.70;4.20;;;4.00;99.90;;;;;;4904205;29;20071;-82
2022/01/20 10:15:02;;;;;;;13.43;4.35;;;4.00;99.90;;;;;;4905167;29;20053;-81
2022/01/20 10:17:52;;;;;;;15.32;4.18;;;4.00;99.90;;;;;;4883263;29;20041;-80
2022/01/20 10:21:04;;;;;;;7.15;3.88;;;4.00;99.90;;;;;;4885982;29;20041;-79
2022/01/20 10:23:52;;;;;;;18.08;4.28;;;4.00;99.90;;;;;;4898829;29;20484;-79
2022/01/20 10:26:41;;;;;;;11.98;3.90;;;4.00;99.90;;;;;;4870566;29;20056;-79
2022/01/20 10:29:30;;;;;;;34.58;10.43;;;4.00;99.90;;;;;;4905902;29;20044;-80
2022/01/20 10:32:50;;;;;;;21.60;5.65;;;4.00;99.90;;;;;;4889184;29;20079;-80
2022/01/20 10:35:45;;;;;;;20.70;3.92;;;4.00;99.90;;;;;;4890606;29;20059;-79
2022/01/20 10:38:33;;;;;;;22.95;3.85;;;4.00;99.90;;;;;;4877224;29;20370;-82
2022/01/20 10:41:38;;;;;;;11.07;3.28;;;4.10;99.90;;;;;;4893090;29;20048;-82
2022/01/20 10:44:26;;;;;;;13.90;3.78;;;4.10;99.90;;;;;;4903675;29;20103;-81
2022/01/20 10:47:36;;;;;;;16.70;4.22;;;4.20;99.90;;;;;;4892261;29;20060;-81
2022/01/20 10:50:27;;;;;;;18.13;3.78;;;4.40;99.90;;;;;;4900762;29;20051;-80
2022/01/20 10:53:21;;;;;;;13.52;3.25;;;4.40;99.90;;;;;;4887112;29;20435;-80
2022/01/20 10:56:09;;;;;;;13.23;3.88;;;4.30;99.90;;;;;;4906463;29;20059;-79
2022/01/20 10:59:06;;;;;;;14.20;3.25;;;4.30;99.90;;;;;;4875268;29;20064;-81
2022/01/20 11:02:07;;;;;;;11.23;3.33;;;4.20;99.90;;;;;;4888565;29;20128;-81
2022/01/20 11:05:03;;;;;;;8.98;3.65;;;4.10;99.90;;;;;;4898544;29;20088;-79
2022/01/20 11:07:53;;;;;;;20.88;4.18;;;3.90;99.90;;;;;;4873428;29;20439;-81
2022/01/20 11:10:44;;;;;;;18.30;4.38;;;3.60;99.90;;;;;;4886841;29;20037;-81
2022/01/20 11:13:32;;;;;;;9.30;3.50;;;3.50;99.90;;;;;;4890252;29;20685;-79
2022/01/20 11:16:21;;;;;;;13.85;4.82;;;3.50;99.90;;;;;;4888327;29;20085;-81
2022/01/20 11:19:20;;;;;;;15.60;4.55;;;3.40;99.90;;;;;;4888422;29;20048;-80
2022/01/20 11:22:11;;;;;;;15.88;4.50;;;3.20;99.90;;;;;;4881944;29;20053;-80
2022/01/20 11:25:09;;;;;;;10.05;4.32;;;3.20;99.90;;;;;;4901617;29;20052;-81
2022/01/20 11:28:23;;;;;;;17.38;4.47;;;3.10;99.90;;;;;;4882937;29;20045;-83
2022/01/20 11:31:11;;;;;;;16.45;5.18;;;3.10;99.90;;;;;;4887918;29;20475;-81
2022/01/20 11:33:59;;;;;;;20.70;4.90;;;3.20;99.90;;;;;;4874394;29;20048;-82
2022/01/20 11:36:50;;;;;;;8.93;4.38;;;3.20;99.90;;;;;;4888023;29;20076;-81
2022/01/20 11:40:08;;;;;;;15.45;4.70;;;3.30;99.90;;;;;;4879555;29;20101;-80
2022/01/20 11:43:07;;;;;;;9.85;4.57;;;3.30;99.90;;;;;;4887984;29;20079;-81
2022/01/20 11:46:07;;;;;;;15.52;4.68;;;3.30;99.90;;;;;;4888105;29;20066;-80
2022/01/20 11:48:59;;;;;;;16.85;4.30;;;3.40;99.90;;;;;;4893233;29;20083;-80
2022/01/20 11:51:55;;;;;;;16.55;4.85;;;3.40;99.90;;;;;;4901464;29;20048;-79
2022/01/20 11:54:47;;;;;;;15.40;5.45;;;3.40;99.90;;;;;;4888448;29;20534;-82
2022/01/20 11:57:34;;;;;;;13.07;5.20;;;3.40;99.90;;;;;;4886840;29;20058;-81
2022/01/20 12:00:25;;;;;;;18.75;4.95;;;3.40;99.90;;;;;;4899144;29;20136;-80
2022/01/20 12:03:28;;;;;;;16.23;5.05;;;3.50;99.90;;;;;;4890948;29;20055;-80
2022/01/20 12:06:22;;;;;;;16.85;4.32;;;3.60;99.90;;;;;;4898562;29;20059;-82
2022/01/20 12:09:11;;;;;;;9.77;3.78;;;3.80;99.90;;;;;;4877960;29;20048;-82
2022/01/20 12:12:05;;;;;;;11.00;4.35;;;3.90;99.90;;;;;;4881806;29;20055;-79
2022/01/20 12:14:55;;;;;;;9.07;3.88;;;3.80;99.90;;;;;;4893009;29;20062;-81
2022/01/20 12:17:50;;;;;;;13.15;4.60;;;3.70;99.90;;;;;;4880573;29;20052;-80
2022/01/20 12:20:39;;;;;;;14.57;4.35;;;3.60;99.90;;;;;;4887544;29;20041;-82
2022/01/20 12:23:29;;;;;;;11.10;4.53;;;3.10;99.90;;;;;;4885679;29;20435;-81
2022/01/20 12:26:16;;;;;;;18.05;5.97;;;2.80;99.90;;;;;;4889844;29;20371;-83
2022/01/20 12:29:11;;;;;;;11.45;5.68;;;2.80;99.90;;;;;;4903814;29;20104;-82
2022/01/20 12:32:00;;;;;;;11.63;6.30;;;2.90;99.90;;;;;;4889832;29;20053;-82
2022/01/20 12:35:04;;;;;;;14.35;6.70;;;3.10;99.90;;;;;;4888197;29;20049;-84
2022/01/20 12:37:53;;;;;;;12.07;6.30;;;3.30;99.90;;;;;;4896922;29;20052;-81
2022/01/20 12:40:50;;;;;;;10.13;5.35;;;3.20;99.90;;;;;;4885954;29;20140;-83
2022/01/20 12:44:09;;;;;;;10.43;5.45;;;3.20;99.90;;;;;;4860165;29;20057;-80
2022/01/20 12:46:57;;;;;;;10.18;6.00;;;3.30;99.90;;;;;;4886613;29;20052;-81
2022/01/20 12:49:56;;;;;;;9.57;5.95;;;3.30;99.90;;;;;;4890803;29;20432;-84
2022/01/20 12:52:49;;;;;;;12.35;5.97;;;3.40;99.90;;;;;;4884335;29;20609;-82
2022/01/20 12:55:37;;;;;;;11.75;6.75;;;3.30;99.90;;;;;;4887703;29;20544;-81
2022/01/20 12:58:31;;;;;;;14.27;6.40;;;3.20;99.90;;;;;;4871852;29;20052;-82
2022/01/20 13:01:19;;;;;;;11.60;6.05;;;3.20;99.90;;;;;;4875530;29;20056;-82
2022/01/20 13:04:09;;;;;;;10.93;5.70;;;3.10;99.90;;;;;;4881997;29;20078;-82
2022/01/20 13:07:00;;;;;;;11.48;5.38;;;3.20;99.90;;;;;;4889439;29;20343;-83
2022/01/20 13:10:02;;;;;;;14.52;5.30;;;3.20;99.90;;;;;;4889159;29;20079;-81
2022/01/20 13:12:51;;;;;;;11.93;4.88;;;3.30;99.90;;;;;;4887609;29;20053;-81
2022/01/20 13:15:40;;;;;;;8.40;2.97;;;3.20;99.90;;;;;;4872114;29;20121;-80
2022/01/20 13:18:29;;;;;;;7.45;2.83;;;2.90;99.90;;;;;;4854515;29;20394;-82
2022/01/20 13:21:27;;;;;;;7.80;2.72;;;2.40;99.90;;;;;;4867741;29;20453;-81
2022/01/20 13:24:25;;;;;;;11.23;2.65;;;2.00;99.90;;;;;;4884471;29;20044;-82
2022/01/20 13:27:13;;;;;;;9.05;2.85;;;1.70;99.90;;;;;;4885425;29;20060;-81
2022/01/20 13:30:00;;;;;;;5.95;2.83;;;1.50;99.90;;;;;;4880773;29;20399;-80
2022/01/20 13:32:52;;;;;;;12.80;3.80;;;1.30;99.90;;;;;;4882056;29;20053;-80
2022/01/20 13:35:43;;;;;;;9.10;3.13;;;1.20;99.90;;;;;;4885600;29;20056;-81
2022/01/20 13:38:41;;;;;;;10.77;3.70;;;1.00;99.90;;;;;;4882647;29;20079;-82
2022/01/20 13:41:31;;;;;;;13.60;4.75;;;0.90;99.90;;;;;;4885180;29;20075;-81
2022/01/20 13:47:31;;;;;;;6.90;3.40;;;0.70;99.90;;;;;;4893094;29;20452;-81
2022/01/20 13:50:39;;;;;;;11.98;3.90;;;0.70;99.90;;;;;;4884422;29;20060;-81
2022/01/20 13:53:31;;;;;;;12.35;3.10;;;0.80;99.90;;;;;;4894742;29;20135;-80
2022/01/20 13:56:21;;;;;;;7.43;3.65;;;0.80;99.90;;;;;;4893201;29;20065;-81
2022/01/20 13:59:10;;;;;;;13.15;3.70;;;0.80;99.90;;;;;;4889535;29;20044;-81
2022/01/20 14:02:16;;;;;;;11.10;3.45;;;0.90;99.90;;;;;;4910894;29;20051;-82
2022/01/20 14:05:08;;;;;;;16.80;4.78;;;0.90;99.90;;;;;;4904000;29;20044;-83
2022/01/20 14:07:57;;;;;;;9.98;4.40;;;1.00;99.90;;;;;;4873383;29;20043;-82
2022/01/20 14:10:48;;;;;;;8.35;4.35;;;1.00;99.90;;;;;;4895654;29;20412;-82
2022/01/20 14:13:43;;;;;;;14.18;4.75;;;1.10;99.90;;;;;;4906914;29;20045;-83
2022/01/20 14:16:32;;;;;;;9.18;3.65;;;1.10;99.90;;;;;;4872673;29;20053;-83
2022/01/20 14:19:27;;;;;;;21.27;5.70;;;1.20;99.90;;;;;;4890080;29;20056;-82
2022/01/20 14:22:17;;;;;;;14.98;4.75;;;1.30;99.90;;;;;;4888343;29;20056;-81
2022/01/20 14:25:06;;;;;;;16.00;4.78;;;1.40;99.90;;;;;;4873704;29;20049;-82
2022/01/20 14:27:57;;;;;;;21.13;5.05;;;1.50;99.90;;;;;;4894160;29;20053;-81
2022/01/20 14:30:46;;;;;;;11.45;4.20;;;1.50;99.90;;;;;;4894553;29;20072;-80
2022/01/20 14:33:33;;;;;;;14.05;4.07;;;1.60;99.90;;;;;;4904562;29;20079;-80
2022/01/20 14:36:23;;;;;;;11.38;4.95;;;1.60;99.90;;;;;;4902876;29;20080;-80
2022/01/20 14:39:15;;;;;;;14.27;4.72;;;1.60;99.90;;;;;;4893152;29;20048;-82
2022/01/20 14:42:08;;;;;;;8.40;3.92;;;1.60;99.90;;;;;;4882972;29;20071;-80
2022/01/20 14:44:55;;;;;;;18.27;5.05;;;1.70;99.90;;;;;;4896259;29;20052;-82
2022/01/20 14:47:43;;;;;;;10.98;4.18;;;1.80;99.90;;;;;;4899237;29;20061;-80
2022/01/20 14:50:31;;;;;;;9.05;3.65;;;1.80;99.90;;;;;;4887912;29;20045;-80
2022/01/20 14:53:21;;;;;;;12.25;4.15;;;1.90;99.90;;;;;;4882420;29;20052;-81
2022/01/20 14:56:16;;;;;;;8.80;3.10;;;1.90;99.90;;;;;;4886460;29;20130;-82
2022/01/20 14:59:04;;;;;;;11.65;4.10;;;1.70;99.90;;;;;;4888570;29;20053;-81
2022/01/20 15:01:52;;;;;;;13.40;3.72;;;1.60;99.90;;;;;;4892090;29;20128;-81
2022/01/20 15:04:40;;;;;;;14.52;4.85;;;1.50;99.90;;;;;;4889153;29;20343;-82
2022/01/20 15:07:30;;;;;;;16.63;5.22;;;1.40;99.90;;;;;;4886298;29;20127;-80
2022/01/20 15:10:19;;;;;;;16.88;4.13;;;1.40;99.90;;;;;;4885741;29;20505;-80
2022/01/20 15:13:07;;;;;;;13.90;3.95;;;1.30;99.90;;;;;;4884621;29;20064;-80
2022/01/20 15:15:55;;;;;;;15.75;4.20;;;1.30;99.90;;;;;;4896603;29;20049;-80
2022/01/20 15:18:56;;;;;;;18.92;5.43;;;1.20;99.90;;;;;;4899925;29;20371;-81
2022/01/20 15:21:49;;;;;;;18.70;4.90;;;1.20;99.90;;;;;;4896522;29;20117;-79
2022/01/20 15:24:38;;;;;;;14.55;5.15;;;1.20;99.90;;;;;;4883802;29;20052;-78
2022/01/20 15:27:26;;;;;;;14.95;4.25;;;1.10;99.90;;;;;;4874156;29;20450;-80
2022/01/20 15:30:13;;;;;;;17.30;6.50;;;1.10;99.90;;;;;;4869461;29;20044;-80
2022/01/20 15:33:02;;;;;;;18.63;5.95;;;1.10;99.90;;;;;;4875682;29;20130;-80
2022/01/20 15:35:55;;;;;;;16.60;5.15;;;1.00;99.90;;;;;;4892234;29;20415;-78
2022/01/20 15:38:47;;;;;;;18.75;5.53;;;0.90;99.90;;;;;;4904660;29;20048;-79
2022/01/20 15:41:38;;;;;;;14.73;4.25;;;0.90;99.90;;;;;;4906362;29;20044;-81
2022/01/20 15:44:31;;;;;;;20.67;4.88;;;0.80;99.90;;;;;;4882978;29;20066;-79
2022/01/20 15:47:19;;;;;;;31.13;10.30;;;0.60;99.90;;;;;;4900334;29;20093;-78
2022/01/20 15:50:10;;;;;;;19.30;4.30;;;0.60;99.90;;;;;;4889404;29;20056;-78
2022/01/20 15:53:05;;;;;;;14.35;3.92;;;0.40;99.90;;;;;;4886036;29;20594;-80
2022/01/20 15:55:54;;;;;;;15.15;4.35;;;0.30;99.90;;;;;;4891388;29;20128;-79
2022/01/20 15:58:42;;;;;;;10.30;3.33;;;0.10;99.90;;;;;;4895971;29;20179;-79
2022/01/20 16:01:44;;;;;;;20.60;4.82;;;0.00;99.90;;;;;;4902839;29;20396;-79
2022/01/20 16:04:31;;;;;;;10.77;3.33;;;-0.10;99.90;;;;;;4871212;29;20153;-79
2022/01/20 16:07:26;;;;;;;9.50;4.53;;;-0.20;99.90;;;;;;4880902;29;20064;-79
2022/01/20 16:10:16;;;;;;;24.30;4.60;;;-0.20;99.90;;;;;;4872217;29;20458;-78
2022/01/20 16:13:06;;;;;;;14.68;4.38;;;-0.20;99.90;;;;;;4886450;29;20097;-79
2022/01/20 16:15:56;;;;;;;10.80;4.25;;;-0.30;99.90;;;;;;4882734;29;20057;-80
2022/01/20 16:18:44;;;;;;;15.85;4.00;;;-0.30;99.90;;;;;;4872711;29;20478;-81
2022/01/20 16:21:33;;;;;;;14.77;4.03;;;-0.30;99.90;;;;;;4884014;29;20111;-80
2022/01/20 16:24:34;;;;;;;17.48;4.07;;;-0.40;99.90;;;;;;4908184;29;20335;-80
2022/01/20 16:27:24;;;;;;;14.05;3.88;;;-0.40;99.90;;;;;;4872412;29;20045;-79
2022/01/20 16:30:13;;;;;;;13.90;3.90;;;-0.40;99.90;;;;;;4884064;29;20045;-79
2022/01/20 16:33:01;;;;;;;13.38;3.83;;;-0.50;99.90;;;;;;4885585;29;20044;-78
2022/01/20 16:35:50;;;;;;;13.18;3.47;;;-0.50;99.90;;;;;;4889112;29;20052;-80
2022/01/20 16:38:38;;;;;;;15.07;3.45;;;-0.50;99.90;;;;;;4889343;29;20048;-78
2022/01/20 16:41:30;;;;;;;9.98;3.20;;;-0.60;99.90;;;;;;4884814;29;20135;-79
2022/01/20 16:44:19;;;;;;;18.20;3.63;;;-0.60;99.90;;;;;;4898231;29;20063;-79
2022/01/20 16:47:07;;;;;;;21.90;4.30;;;-0.70;99.90;;;;;;4888481;29;20455;-78
2022/01/20 16:49:54;;;;;;;12.77;3.58;;;-0.70;99.90;;;;;;4868106;29;20094;-82
2022/01/20 16:52:49;;;;;;;12.65;4.00;;;-0.70;99.90;;;;;;4881418;29;20041;-79
2022/01/20 16:55:38;;;;;;;10.70;3.63;;;-0.70;99.90;;;;;;4887087;29;20442;-81
2022/01/20 16:58:28;;;;;;;18.17;4.88;;;-0.70;99.90;;;;;;4883575;29;20055;-80
2022/01/20 17:01:16;;;;;;;14.77;4.90;;;-0.80;99.90;;;;;;4881610;29;20049;-81
2022/01/20 17:04:07;;;;;;;17.48;4.65;;;-0.80;99.90;;;;;;4886445;29;20040;-82
2022/01/20 17:06:56;;;;;;;12.05;4.90;;;-0.90;99.90;;;;;;4895222;29;20071;-83
2022/01/20 17:09:48;;;;;;;15.35;5.00;;;-0.90;99.90;;;;;;4874725;29;20064;-80
2022/01/20 17:12:38;;;;;;;16.27;5.37;;;-0.90;99.90;;;;;;4881466;29;20056;-81
2022/01/20 17:15:28;;;;;;;11.93;4.32;;;-1.00;99.90;;;;;;4880087;29;20052;-80
2022/01/20 17:18:16;;;;;;;14.23;4.85;;;-1.00;99.90;;;;;;4875868;29;20063;-80
2022/01/20 17:21:06;;;;;;;13.98;5.78;;;-1.10;99.90;;;;;;4877488;29;20052;-80
2022/01/20 17:23:55;;;;;;;14.90;5.10;;;-1.20;99.90;;;;;;4882859;29;20518;-79
2022/01/20 17:26:44;;;;;;;11.73;5.90;;;-1.20;99.90;;;;;;4897388;28;20056;-80
2022/01/20 17:29:31;;;;;;;17.90;5.90;;;-1.30;99.90;;;;;;4872226;29;20048;-79
2022/01/20 17:32:20;;;;;;;19.55;7.43;;;-1.30;99.90;;;;;;4887490;29;20151;-79
2022/01/20 17:35:12;;;;;;;20.55;6.50;;;-1.20;99.90;;;;;;4888941;29;20053;-79
2022/01/20 17:38:00;;;;;;;33.95;7.60;;;-1.10;99.90;;;;;;4885526;29;20045;-81